Time;durP1;ratioP1;P1;durP2;ratioP2;P2;SDS_P1;SDS_P2;PMS_P1;PMS_P2;Temp;Humidity;BMP_temperature;BMP_pressure;BME280_temperature;BME280_humidity;BME280_pressure;Samples;Min_cycle;Max_cycle;Signal;HPM_P1;HPM_P2
2022/05/24 00:00:29;;;;;;;13.13;5.88;;;;;;;;;;5034132;28;20390;-77
2022/05/24 00:02:55;;;;;;;17.63;5.73;;;;;;;;;;5045743;28;20025;-78
2022/05/24 00:05:22;;;;;;;20.17;6.13;;;;;;;;;;5033933;28;20030;-77
2022/05/24 00:07:48;;;;;;;10.98;6.03;;;;;;;;;;5035511;28;20056;-76
2022/05/24 00:10:16;;;;;;;10.32;5.93;;;;;;;;;;5034557;28;20025;-76
2022/05/24 00:12:42;;;;;;;11.68;6.20;;;;;;;;;;5034680;28;20045;-75
2022/05/24 00:15:29;;;;;;;13.77;6.28;;;;;;;;;;5032652;28;20022;-76
2022/05/24 00:18:08;;;;;;;12.80;5.97;;;;;;;;;;5034630;28;20079;-75
2022/05/24 00:20:54;;;;;;;10.13;5.63;;;;;;;;;;5034738;28;20034;-77
2022/05/24 00:23:21;;;;;;;10.32;5.65;;;;;;;;;;5035085;28;20030;-77
2022/05/24 00:25:49;;;;;;;14.23;5.45;;;;;;;;;;5034823;28;20037;-77
2022/05/24 00:28:15;;;;;;;13.43;5.80;;;;;;;;;;5034856;28;20036;-76
2022/05/24 00:30:43;;;;;;;14.77;6.43;;;;;;;;;;5034446;28;20032;-77
2022/05/24 00:33:09;;;;;;;19.58;6.15;;;;;;;;;;5034722;28;20038;-76
2022/05/24 00:35:35;;;;;;;15.35;6.05;;;;;;;;;;5034377;28;20029;-76
2022/05/24 00:38:01;;;;;;;15.25;6.00;;;;;;;;;;5033458;28;20566;-77
2022/05/24 00:40:47;;;;;;;11.77;6.00;;;;;;;;;;5034678;28;20026;-77
2022/05/24 00:43:26;;;;;;;12.00;6.07;;;;;;;;;;5035045;28;20032;-77
2022/05/24 00:45:55;;;;;;;10.63;5.90;;;;;;;;;;5034493;28;20466;-76
2022/05/24 00:48:47;;;;;;;12.48;5.93;;;;;;;;;;5034939;28;20151;-76
2022/05/24 00:51:13;;;;;;;10.00;5.97;;;;;;;;;;5011864;28;20095;-77
2022/05/24 00:53:46;;;;;;;13.50;6.03;;;;;;;;;;5035504;28;20458;-77
2022/05/24 00:56:16;;;;;;;14.55;6.18;;;;;;;;;;5035766;28;20033;-77
2022/05/24 00:58:45;;;;;;;14.15;6.55;;;;;;;;;;5036568;28;20482;-76
2022/05/24 01:01:31;;;;;;;11.32;6.25;;;;;;;;;;5035116;28;20549;-77
2022/05/24 01:03:56;;;;;;;15.82;7.22;;;;;;;;;;5034043;28;20040;-78
2022/05/24 01:06:23;;;;;;;11.90;6.85;;;;;;;;;;5036629;28;20073;-75
2022/05/24 01:08:49;;;;;;;14.57;6.35;;;;;;;;;;5036000;28;20025;-77
2022/05/24 01:11:15;;;;;;;11.50;6.13;;;;;;;;;;5034032;28;20382;-77
2022/05/24 01:13:42;;;;;;;15.43;6.43;;;;;;;;;;5034534;28;20030;-77
2022/05/24 01:16:08;;;;;;;13.90;5.78;;;;;;;;;;5041383;28;20025;-77
2022/05/24 01:18:34;;;;;;;14.70;6.28;;;;;;;;;;5045042;28;20032;-76
2022/05/24 01:21:06;;;;;;;13.88;6.00;;;;;;;;;;5048800;28;20570;-77
2022/05/24 01:23:58;;;;;;;11.82;6.47;;;;;;;;;;5049502;28;20077;-77
2022/05/24 01:26:36;;;;;;;11.48;6.43;;;;;;;;;;5016152;28;20033;-76
2022/05/24 01:29:05;;;;;;;13.32;7.03;;;;;;;;;;5041382;28;20079;-78
2022/05/24 01:36:09;;;;;;;15.00;7.60;;;;;;;;;;5041055;28;20040;-76
2022/05/24 01:37:03;;;;;;;22.17;8.18;;;;;;;;;;5039331;28;20780;-77
2022/05/24 01:39:30;;;;;;;16.27;8.27;;;;;;;;;;5038335;28;20459;-77
2022/05/24 01:41:56;;;;;;;14.25;8.38;;;;;;;;;;5033558;28;20072;-78
2022/05/24 01:44:49;;;;;;;20.85;9.18;;;;;;;;;;5033535;28;20032;-77
2022/05/24 01:47:17;;;;;;;17.55;9.68;;;;;;;;;;5028660;28;20110;-76
2022/05/24 01:49:45;;;;;;;15.25;9.20;;;;;;;;;;5032469;28;20036;-76
2022/05/24 01:52:16;;;;;;;11.23;7.25;;;;;;;;;;5035282;28;20025;-76
2022/05/24 01:54:45;;;;;;;14.02;6.80;;;;;;;;;;5032904;28;20232;-77
2022/05/24 01:57:22;;;;;;;16.00;6.30;;;;;;;;;;5032837;28;20458;-78
2022/05/24 01:59:49;;;;;;;6.75;5.30;;;;;;;;;;5033688;28;20017;-77
2022/05/24 02:02:16;;;;;;;7.38;4.47;;;;;;;;;;5031967;28;20032;-78
2022/05/24 02:04:42;;;;;;;12.27;4.75;;;;;;;;;;5032799;28;20061;-77
2022/05/24 02:07:10;;;;;;;6.07;3.95;;;;;;;;;;5031360;28;20049;-77
2022/05/24 02:09:40;;;;;;;6.68;4.57;;;;;;;;;;5032902;28;20083;-77
2022/05/24 02:12:08;;;;;;;8.52;4.65;;;;;;;;;;5033342;28;20064;-77
2022/05/24 02:14:38;;;;;;;9.57;4.72;;;;;;;;;;5033293;28;20025;-78
2022/05/24 02:17:16;;;;;;;9.38;4.95;;;;;;;;;;5032429;28;20025;-77
2022/05/24 02:19:44;;;;;;;16.50;5.88;;;;;;;;;;5056815;22;20041;-72
2022/05/24 02:22:11;;;;;;;9.57;5.35;;;;;;;;;;5044021;28;20045;-72
2022/05/24 02:24:37;;;;;;;13.00;6.05;;;;;;;;;;5042510;28;20025;-72
2022/05/24 02:27:04;;;;;;;12.80;6.30;;;;;;;;;;5041622;28;20048;-72
2022/05/24 02:29:31;;;;;;;14.07;7.03;;;;;;;;;;5043241;28;20030;-71
2022/05/24 02:31:57;;;;;;;10.45;7.07;;;;;;;;;;5036364;28;20029;-70
2022/05/24 02:34:23;;;;;;;14.00;7.60;;;;;;;;;;5032732;28;20159;-70
2022/05/24 02:36:49;;;;;;;9.98;7.15;;;;;;;;;;5034797;28;20518;-70
2022/05/24 02:39:15;;;;;;;11.98;7.80;;;;;;;;;;5035171;28;20081;-71
2022/05/24 02:41:41;;;;;;;19.50;8.45;;;;;;;;;;5038496;28;20029;-72
2022/05/24 02:44:09;;;;;;;14.60;9.65;;;;;;;;;;5043344;28;20076;-73
2022/05/24 02:46:36;;;;;;;17.05;10.05;;;;;;;;;;5037692;28;20341;-72
2022/05/24 02:49:03;;;;;;;18.83;11.38;;;;;;;;;;5032642;28;20104;-71
2022/05/24 02:51:29;;;;;;;15.52;9.93;;;;;;;;;;5032619;28;20075;-73
2022/05/24 02:53:55;;;;;;;18.67;11.35;;;;;;;;;;5032177;28;20079;-73
2022/05/24 02:56:21;;;;;;;18.58;11.98;;;;;;;;;;5032468;28;20025;-72
2022/05/24 02:58:48;;;;;;;18.90;10.95;;;;;;;;;;5031271;28;20064;-73
2022/05/24 03:01:18;;;;;;;21.02;11.30;;;;;;;;;;5031900;28;20030;-72
2022/05/24 03:03:44;;;;;;;23.42;12.80;;;;;;;;;;5032366;28;20030;-73
2022/05/24 03:06:10;;;;;;;23.08;13.20;;;;;;;;;;5031588;28;20406;-73
2022/05/24 03:11:20;;;;;;;24.30;13.73;;;;;;;;;;5031723;28;20095;-73
2022/05/24 03:16:31;;;;;;;23.45;15.38;;;;;;;;;;5031316;28;20029;-72
2022/05/24 03:18:57;;;;;;;23.05;14.68;;;;;;;;;;5031968;28;20490;-73
2022/05/24 03:21:23;;;;;;;19.90;14.23;;;;;;;;;;5031938;28;20032;-72
2022/05/24 03:23:49;;;;;;;24.20;15.18;;;;;;;;;;5031921;28;20021;-72
2022/05/24 03:26:15;;;;;;;26.73;15.13;;;;;;;;;;5034774;28;20045;-73
2022/05/24 03:28:42;;;;;;;20.13;13.98;;;;;;;;;;5035471;28;20080;-73
2022/05/24 03:31:08;;;;;;;27.27;16.88;;;;;;;;;;5035878;28;20083;-73
2022/05/24 03:33:34;;;;;;;24.33;16.00;;;;;;;;;;5035770;28;20029;-73
2022/05/24 03:36:00;;;;;;;24.70;15.95;;;;;;;;;;5035256;28;20217;-73
2022/05/24 03:38:28;;;;;;;35.38;16.48;;;;;;;;;;5035926;28;20398;-73
2022/05/24 03:40:54;;;;;;;23.55;14.68;;;;;;;;;;5035605;28;20025;-74
2022/05/24 03:43:20;;;;;;;25.67;15.20;;;;;;;;;;5035842;28;20462;-73
2022/05/24 03:45:46;;;;;;;28.42;14.75;;;;;;;;;;5036727;28;20025;-71
2022/05/24 03:48:13;;;;;;;25.10;14.07;;;;;;;;;;5038626;28;20028;-71
2022/05/24 03:50:39;;;;;;;24.75;14.38;;;;;;;;;;5035835;28;20025;-72
2022/05/24 03:53:05;;;;;;;22.10;14.35;;;;;;;;;;5035671;28;20402;-73
2022/05/24 03:55:31;;;;;;;28.23;14.50;;;;;;;;;;5035171;28;20032;-71
2022/05/24 03:58:00;;;;;;;24.05;14.77;;;;;;;;;;5035660;28;20034;-71
2022/05/24 04:00:27;;;;;;;24.40;13.88;;;;;;;;;;5035807;28;20219;-72
2022/05/24 04:02:53;;;;;;;28.52;13.88;;;;;;;;;;5035532;28;20028;-70
2022/05/24 04:05:19;;;;;;;26.00;13.60;;;;;;;;;;5035659;28;20109;-71
2022/05/24 04:07:45;;;;;;;18.30;12.38;;;;;;;;;;5035145;28;20182;-72
2022/05/24 04:10:12;;;;;;;26.90;14.98;;;;;;;;;;5035303;28;20018;-73
2022/05/24 04:12:38;;;;;;;20.38;12.35;;;;;;;;;;5035444;28;20071;-74
2022/05/24 04:15:05;;;;;;;20.83;12.65;;;;;;;;;;5017709;28;20543;-73
2022/05/24 04:17:31;;;;;;;17.27;11.90;;;;;;;;;;5036647;28;20342;-73
2022/05/24 04:19:57;;;;;;;21.40;12.38;;;;;;;;;;5034789;28;20044;-76
2022/05/24 04:22:22;;;;;;;17.55;10.48;;;;;;;;;;5035296;28;20018;-72
2022/05/24 04:24:48;;;;;;;19.42;10.20;;;;;;;;;;5035511;28;20100;-73
2022/05/24 04:27:14;;;;;;;17.70;10.13;;;;;;;;;;5035751;28;20026;-73
2022/05/24 04:29:41;;;;;;;25.52;10.88;;;;;;;;;;5017565;28;20496;-73
2022/05/24 04:32:08;;;;;;;18.27;10.23;;;;;;;;;;5035177;28;20099;-73
2022/05/24 04:34:34;;;;;;;18.33;10.05;;;;;;;;;;5035481;28;20025;-73
2022/05/24 04:37:00;;;;;;;18.33;8.95;;;;;;;;;;5033998;28;20021;-72
2022/05/24 04:39:26;;;;;;;15.02;8.90;;;;;;;;;;5035102;28;20645;-73
2022/05/24 04:44:37;;;;;;;16.38;8.07;;;;;;;;;;5035265;28;20124;-73
2022/05/24 04:47:09;;;;;;;18.55;8.13;;;;;;;;;;5035205;28;20060;-72
2022/05/24 04:49:36;;;;;;;14.93;6.90;;;;;;;;;;5035606;28;20390;-73
2022/05/24 04:52:02;;;;;;;11.45;6.63;;;;;;;;;;5017674;28;20398;-74
2022/05/24 04:54:28;;;;;;;15.13;7.18;;;;;;;;;;5035764;28;20026;-73
2022/05/24 04:56:54;;;;;;;14.77;6.80;;;;;;;;;;5034984;28;20069;-77
2022/05/24 04:59:20;;;;;;;13.15;7.00;;;;;;;;;;5036791;28;20083;-74
2022/05/24 05:01:46;;;;;;;13.75;6.15;;;;;;;;;;5036651;28;20021;-73
2022/05/24 05:04:12;;;;;;;11.90;6.03;;;;;;;;;;5035503;28;20036;-72
2022/05/24 05:06:43;;;;;;;16.42;6.13;;;;;;;;;;5035367;28;20030;-74
2022/05/24 05:09:09;;;;;;;11.60;5.22;;;;;;;;;;5035514;28;20025;-72
2022/05/24 05:11:35;;;;;;;16.65;5.78;;;;;;;;;;5036330;28;20026;-73
2022/05/24 05:14:01;;;;;;;15.10;5.28;;;;;;;;;;5036964;28;20029;-75
2022/05/24 05:16:27;;;;;;;13.98;5.65;;;;;;;;;;5037156;28;20029;-72
2022/05/24 05:18:53;;;;;;;11.88;5.53;;;;;;;;;;5019344;28;20064;-73
2022/05/24 05:21:19;;;;;;;12.25;6.40;;;;;;;;;;5043295;28;20030;-73
2022/05/24 05:23:45;;;;;;;8.50;4.85;;;;;;;;;;5043113;28;20025;-73
2022/05/24 05:26:14;;;;;;;10.50;4.53;;;;;;;;;;5041073;28;20059;-74
2022/05/24 05:28:40;;;;;;;14.20;4.78;;;;;;;;;;5047005;28;20022;-74
2022/05/24 05:34:05;;;;;;;10.05;4.40;;;;;;;;;;5014313;28;20383;-73
2022/05/24 05:36:32;;;;;;;11.20;4.43;;;;;;;;;;5043249;28;20033;-73
2022/05/24 05:38:58;;;;;;;7.93;3.80;;;;;;;;;;5028015;28;20026;-73
2022/05/24 05:41:29;;;;;;;7.97;4.30;;;;;;;;;;5044834;28;20072;-76
2022/05/24 05:43:55;;;;;;;11.43;4.90;;;;;;;;;;5027691;28;20031;-74
2022/05/24 05:46:22;;;;;;;11.07;4.88;;;;;;;;;;5042523;28;20028;-76
2022/05/24 05:48:48;;;;;;;7.60;4.53;;;;;;;;;;5041187;28;20055;-73
2022/05/24 05:51:15;;;;;;;8.10;4.63;;;;;;;;;;5036601;28;20025;-74
2022/05/24 05:53:41;;;;;;;11.20;4.97;;;;;;;;;;5022905;28;20036;-75
2022/05/24 05:56:19;;;;;;;10.88;5.00;;;;;;;;;;5040245;28;20036;-75
2022/05/24 05:58:45;;;;;;;13.27;4.85;;;;;;;;;;5035489;28;20101;-74
2022/05/24 06:01:22;;;;;;;11.48;5.05;;;;;;;;;;5036195;28;20082;-74
2022/05/24 06:03:48;;;;;;;10.07;4.43;;;;;;;;;;5035669;28;20389;-73
2022/05/24 06:06:16;;;;;;;13.10;5.38;;;;;;;;;;5035820;28;20030;-74
2022/05/24 06:08:42;;;;;;;10.43;4.93;;;;;;;;;;5035669;28;20026;-74
2022/05/24 06:11:08;;;;;;;10.43;5.28;;;;;;;;;;5024443;28;20075;-74
2022/05/24 06:13:34;;;;;;;14.45;5.22;;;;;;;;;;5026403;28;20029;-73
2022/05/24 06:16:00;;;;;;;14.82;5.47;;;;;;;;;;5035637;28;20375;-74
2022/05/24 06:18:26;;;;;;;12.27;4.72;;;;;;;;;;5017959;28;20175;-74
2022/05/24 06:20:52;;;;;;;11.25;4.75;;;;;;;;;;5034851;28;20089;-73
2022/05/24 06:23:18;;;;;;;11.13;5.10;;;;;;;;;;5035702;28;20368;-73
2022/05/24 06:25:44;;;;;;;14.65;5.32;;;;;;;;;;5040066;28;20039;-73
2022/05/24 06:28:14;;;;;;;18.15;7.90;;;;;;;;;;5034919;28;20447;-72
2022/05/24 06:30:40;;;;;;;11.23;5.45;;;;;;;;;;5034509;28;20386;-72
2022/05/24 06:33:07;;;;;;;13.93;5.32;;;;;;;;;;5035304;28;20107;-73
2022/05/24 06:35:33;;;;;;;12.73;5.50;;;;;;;;;;5033960;28;20411;-72
2022/05/24 06:37:59;;;;;;;7.40;4.90;;;;;;;;;;5034354;28;20079;-74
2022/05/24 06:40:25;;;;;;;10.90;5.65;;;;;;;;;;5035453;28;20052;-72
2022/05/24 06:42:51;;;;;;;11.98;6.03;;;;;;;;;;5018137;28;20116;-73
2022/05/24 06:45:17;;;;;;;12.25;5.65;;;;;;;;;;5033669;28;20450;-72
2022/05/24 06:47:43;;;;;;;11.40;6.10;;;;;;;;;;5034648;28;20026;-74
2022/05/24 06:50:10;;;;;;;9.98;5.95;;;;;;;;;;5034802;28;20025;-74
2022/05/24 06:52:36;;;;;;;10.70;6.18;;;;;;;;;;5034197;28;20071;-73
2022/05/24 06:55:03;;;;;;;15.20;6.50;;;;;;;;;;5016220;28;20025;-73
2022/05/24 06:57:29;;;;;;;13.00;6.20;;;;;;;;;;5033795;28;20026;-72
2022/05/24 07:02:40;;;;;;;10.52;5.90;;;;;;;;;;5038317;28;20713;-74
2022/05/24 07:05:10;;;;;;;12.32;6.38;;;;;;;;;;5040142;28;20021;-73
2022/05/24 07:07:36;;;;;;;10.98;6.05;;;;;;;;;;5037532;28;20057;-74
2022/05/24 07:10:04;;;;;;;13.75;7.05;;;;;;;;;;5037906;28;20029;-73
2022/05/24 07:12:30;;;;;;;17.73;8.63;;;;;;;;;;5038248;28;20079;-71
2022/05/24 07:14:57;;;;;;;12.13;7.50;;;;;;;;;;5039420;28;20032;-70
2022/05/24 07:17:23;;;;;;;15.80;8.38;;;;;;;;;;5037535;28;20108;-74
2022/05/24 07:19:50;;;;;;;13.88;8.25;;;;;;;;;;5037427;28;20061;-73
2022/05/24 07:22:16;;;;;;;13.77;8.52;;;;;;;;;;5020159;28;20676;-72
2022/05/24 07:24:48;;;;;;;16.58;9.57;;;;;;;;;;5040226;28;20033;-72
2022/05/24 07:27:14;;;;;;;12.88;7.95;;;;;;;;;;5022843;28;20029;-74
2022/05/24 07:29:41;;;;;;;15.25;9.23;;;;;;;;;;5038924;28;20044;-72
2022/05/24 07:32:07;;;;;;;16.83;10.07;;;;;;;;;;5028727;28;20025;-73
2022/05/24 07:34:34;;;;;;;13.00;10.07;;;;;;;;;;5041774;28;20037;-73
2022/05/24 07:37:01;;;;;;;17.20;10.25;;;;;;;;;;5042816;28;20071;-73
2022/05/24 07:39:27;;;;;;;14.50;9.55;;;;;;;;;;5042940;28;20025;-72
2022/05/24 07:47:27;;;;;;;21.25;11.38;;;;;;;;;;5041749;28;20045;-72
2022/05/24 07:49:53;;;;;;;17.88;11.18;;;;;;;;;;5024644;28;20034;-71
2022/05/24 07:52:19;;;;;;;17.83;11.57;;;;;;;;;;5043420;28;20057;-71
2022/05/24 07:54:46;;;;;;;18.65;11.32;;;;;;;;;;5041376;28;20028;-72
2022/05/24 07:57:11;;;;;;;21.77;13.10;;;;;;;;;;5042951;28;20024;-74
2022/05/24 07:59:38;;;;;;;20.92;11.77;;;;;;;;;;5047381;28;20057;-75
2022/05/24 08:02:05;;;;;;;21.33;12.23;;;;;;;;;;5036772;28;20036;-72
2022/05/24 08:04:31;;;;;;;18.50;11.20;;;;;;;;;;5037654;28;20025;-74
2022/05/24 08:06:57;;;;;;;19.58;11.80;;;;;;;;;;5041576;28;20033;-73
2022/05/24 08:09:23;;;;;;;20.95;13.88;;;;;;;;;;5038854;28;20028;-74
2022/05/24 08:11:49;;;;;;;21.55;14.63;;;;;;;;;;5020122;28;20029;-74
2022/05/24 08:14:14;;;;;;;26.60;15.38;;;;;;;;;;5021106;28;20026;-74
2022/05/24 08:16:40;;;;;;;28.40;14.82;;;;;;;;;;5036865;28;20036;-74
2022/05/24 08:19:08;;;;;;;20.15;14.75;;;;;;;;;;5019768;28;20071;-75
2022/05/24 08:21:34;;;;;;;23.65;14.35;;;;;;;;;;5050916;22;20056;-74
2022/05/24 08:24:00;;;;;;;22.42;12.25;;;;;;;;;;5037128;28;20072;-73
2022/05/24 08:26:26;;;;;;;22.27;14.57;;;;;;;;;;5035367;28;20021;-74
2022/05/24 08:28:52;;;;;;;21.42;13.60;;;;;;;;;;5036739;28;20449;-74
2022/05/24 08:31:19;;;;;;;22.55;12.40;;;;;;;;;;5037669;28;20028;-74
2022/05/24 08:33:45;;;;;;;21.27;13.18;;;;;;;;;;5039710;28;20057;-74
2022/05/24 08:36:12;;;;;;;16.17;10.63;;;;;;;;;;5044755;28;20049;-75
2022/05/24 08:38:39;;;;;;;24.17;12.15;;;;;;;;;;5044691;28;20025;-75
2022/05/24 08:41:07;;;;;;;20.33;10.25;;;;;;;;;;5042535;28;20359;-75
2022/05/24 08:48:22;;;;;;;17.05;10.40;;;;;;;;;;5043178;28;20120;-75
2022/05/24 08:49:32;;;;;;;27.02;11.32;;;;;;;;;;5042567;28;20413;-76
2022/05/24 08:52:04;;;;;;;21.30;11.02;;;;;;;;;;5041177;28;20123;-75
2022/05/24 08:54:43;;;;;;;19.42;12.35;;;;;;;;;;5041556;28;20026;-75
2022/05/24 08:57:15;;;;;;;18.08;12.60;;;;;;;;;;5036430;28;20022;-74
2022/05/24 08:59:52;;;;;;;18.33;12.32;;;;;;;;;;5036729;28;20021;-76
2022/05/24 09:02:19;;;;;;;19.52;12.10;;;;;;;;;;5035941;28;20021;-75
2022/05/24 09:04:45;;;;;;;20.83;12.43;;;;;;;;;;5037596;28;20119;-74
2022/05/24 09:07:29;;;;;;;22.08;12.65;;;;;;;;;;5036607;28;20072;-74
2022/05/24 09:09:55;;;;;;;19.75;11.50;;;;;;;;;;5036912;28;20478;-74
2022/05/24 09:12:20;;;;;;;21.23;13.07;;;;;;;;;;5039768;28;20131;-76
2022/05/24 09:14:56;;;;;;;22.23;13.88;;;;;;;;;;5042541;28;20083;-74
2022/05/24 09:17:28;;;;;;;21.02;12.45;;;;;;;;;;5042910;28;20021;-75
2022/05/24 09:19:54;;;;;;;21.48;12.60;;;;;;;;;;5044413;28;20038;-75
2022/05/24 09:22:22;;;;;;;19.20;12.75;;;;;;;;;;5041269;28;20026;-72
2022/05/24 09:24:56;;;;;;;17.33;11.63;;;;;;;;;;5037775;28;20091;-74
2022/05/24 09:27:28;;;;;;;20.58;12.98;;;;;;;;;;5050503;28;20389;-73
2022/05/24 09:29:58;;;;;;;22.58;13.57;;;;;;;;;;5045192;28;20022;-76
2022/05/24 09:32:39;;;;;;;25.38;13.05;;;;;;;;;;5047115;28;20025;-75
2022/05/24 09:35:20;;;;;;;21.17;12.77;;;;;;;;;;5048447;28;20055;-75
2022/05/24 09:38:03;;;;;;;21.50;13.05;;;;;;;;;;5040174;28;20014;-75
2022/05/24 09:40:30;;;;;;;21.55;13.45;;;;;;;;;;5043743;28;20017;-74
2022/05/24 09:42:56;;;;;;;20.90;12.90;;;;;;;;;;5044880;28;20022;-75
2022/05/24 09:45:24;;;;;;;19.13;13.10;;;;;;;;;;5042045;28;20448;-74
2022/05/24 09:47:59;;;;;;;18.70;12.82;;;;;;;;;;5044905;28;20111;-75
2022/05/24 09:50:25;;;;;;;22.52;14.00;;;;;;;;;;5033741;28;20029;-75
2022/05/24 09:53:04;;;;;;;21.83;14.10;;;;;;;;;;5034844;28;20078;-75
2022/05/24 09:55:30;;;;;;;23.52;14.65;;;;;;;;;;5034952;28;20378;-75
2022/05/24 09:58:16;;;;;;;22.60;14.05;;;;;;;;;;5035296;28;20033;-75
2022/05/24 10:01:11;;;;;;;25.88;14.77;;;;;;;;;;5035051;28;20150;-76
2022/05/24 10:03:40;;;;;;;22.85;15.13;;;;;;;;;;5021955;28;20041;-76
2022/05/24 10:06:06;;;;;;;19.45;13.57;;;;;;;;;;5035613;28;20052;-75
2022/05/24 10:08:36;;;;;;;24.80;13.77;;;;;;;;;;5034359;28;20415;-75
2022/05/24 10:11:03;;;;;;;21.67;12.57;;;;;;;;;;5033403;28;20026;-74
2022/05/24 10:13:48;;;;;;;23.85;15.65;;;;;;;;;;5034182;28;20029;-75
2022/05/24 10:16:32;;;;;;;18.67;12.02;;;;;;;;;;5034488;28;20028;-74
2022/05/24 10:19:14;;;;;;;20.00;12.88;;;;;;;;;;5034010;28;20025;-75
2022/05/24 10:21:49;;;;;;;23.10;14.50;;;;;;;;;;5033394;28;20076;-74
2022/05/24 10:24:50;;;;;;;24.65;14.18;;;;;;;;;;5033693;28;20033;-74
2022/05/24 10:27:35;;;;;;;27.67;15.38;;;;;;;;;;4972659;28;20037;-74
2022/05/24 10:30:06;;;;;;;32.30;16.88;;;;;;;;;;5030798;28;20052;-74
2022/05/24 10:38:57;;;;;;;27.45;16.90;;;;;;;;;;5044923;28;20041;-74
2022/05/24 10:41:23;;;;;;;28.63;17.65;;;;;;;;;;5035317;28;20102;-75
2022/05/24 10:43:54;;;;;;;37.25;20.42;;;;;;;;;;5035440;28;20080;-75
2022/05/24 10:46:23;;;;;;;40.28;25.20;;;;;;;;;;5033958;28;20022;-75
2022/05/24 10:49:02;;;;;;;39.50;21.80;;;;;;;;;;5036123;28;20032;-75
2022/05/24 10:51:35;;;;;;;34.67;21.77;;;;;;;;;;5035267;28;20076;-74
2022/05/24 10:54:04;;;;;;;32.67;17.92;;;;;;;;;;5034917;28;20029;-74
2022/05/24 10:56:33;;;;;;;33.47;18.17;;;;;;;;;;5034683;28;20391;-74
2022/05/24 10:59:06;;;;;;;25.90;16.38;;;;;;;;;;5035497;28;20421;-78
2022/05/24 11:01:39;;;;;;;31.05;17.40;;;;;;;;;;5034650;28;20017;-74
2022/05/24 11:04:08;;;;;;;28.98;17.13;;;;;;;;;;5036527;28;20026;-73
2022/05/24 11:06:48;;;;;;;36.88;17.92;;;;;;;;;;5039552;28;20025;-74
2022/05/24 11:09:18;;;;;;;30.60;17.75;;;;;;;;;;5056359;28;20032;-74
2022/05/24 11:12:02;;;;;;;52.70;26.30;;;;;;;;;;5052513;28;20116;-74
2022/05/24 11:14:28;;;;;;;30.52;18.80;;;;;;;;;;5053369;28;20068;-76
2022/05/24 11:16:55;;;;;;;32.53;18.55;;;;;;;;;;5032038;28;20026;-73
2022/05/24 11:19:23;;;;;;;27.92;17.38;;;;;;;;;;5034040;28;20025;-74
2022/05/24 11:22:02;;;;;;;21.23;13.10;;;;;;;;;;5036792;28;20052;-74
2022/05/24 11:24:33;;;;;;;27.65;13.68;;;;;;;;;;5033679;28;20025;-74
2022/05/24 11:27:01;;;;;;;24.85;11.52;;;;;;;;;;5033802;28;20033;-74
2022/05/24 11:29:33;;;;;;;15.55;9.18;;;;;;;;;;5034327;28;20025;-74
2022/05/24 11:32:05;;;;;;;13.27;6.65;;;;;;;;;;5034766;28;20069;-74
2022/05/24 11:34:33;;;;;;;15.52;6.97;;;;;;;;;;5033912;28;20026;-74
2022/05/24 11:37:14;;;;;;;12.43;6.40;;;;;;;;;;5033298;28;20029;-75
2022/05/24 11:39:44;;;;;;;14.05;6.00;;;;;;;;;;5046003;28;20100;-74
2022/05/24 11:42:22;;;;;;;12.75;6.13;;;;;;;;;;5046533;28;20033;-74
2022/05/24 11:44:48;;;;;;;15.88;7.07;;;;;;;;;;5042202;28;20026;-75
2022/05/24 11:47:33;;;;;;;13.45;6.43;;;;;;;;;;5037382;28;20081;-74
2022/05/24 11:50:00;;;;;;;15.65;6.72;;;;;;;;;;5049467;28;20491;-75
2022/05/24 11:52:41;;;;;;;13.65;7.13;;;;;;;;;;5040995;28;20034;-74
2022/05/24 11:55:08;;;;;;;16.58;7.82;;;;;;;;;;5038018;28;20026;-79
2022/05/24 11:57:42;;;;;;;20.42;8.70;;;;;;;;;;5036310;28;20026;-75
2022/05/24 12:00:09;;;;;;;15.87;9.07;;;;;;;;;;5042196;28;20041;-75
2022/05/24 12:07:54;;;;;;;18.52;9.30;;;;;;;;;;5047821;28;20025;-74
2022/05/24 12:08:29;;;;;;;20.50;9.23;;;;;;;;;;5037641;28;20032;-74
2022/05/24 12:11:10;;;;;;;20.45;8.82;;;;;;;;;;5038015;28;20021;-76
2022/05/24 12:13:38;;;;;;;18.33;8.98;;;;;;;;;;5037667;28;20409;-76
2022/05/24 12:16:24;;;;;;;19.60;9.35;;;;;;;;;;5038832;28;20149;-75
2022/05/24 12:18:55;;;;;;;21.52;10.32;;;;;;;;;;5049708;28;20086;-73
2022/05/24 12:21:38;;;;;;;17.17;9.88;;;;;;;;;;5054387;28;20036;-74
2022/05/24 12:24:24;;;;;;;16.63;8.40;;;;;;;;;;5057132;28;20061;-72
2022/05/24 12:27:09;;;;;;;20.00;10.88;;;;;;;;;;5054667;28;20041;-74
2022/05/24 12:29:35;;;;;;;;;;;;;;;;;;5055996;28;20031;-74
2022/05/24 12:32:04;;;;;;;13.88;7.78;;;;;;;;;;5049437;28;19996;-74
2022/05/24 12:34:32;;;;;;;17.35;8.05;;;;;;;;;;5037523;28;20025;-74
2022/05/24 12:36:59;;;;;;;19.55;10.13;;;;;;;;;;5038287;28;20144;-76
2022/05/24 12:39:26;;;;;;;13.27;6.72;;;;;;;;;;5039789;28;20031;-75
2022/05/24 12:42:05;;;;;;;15.35;6.55;;;;;;;;;;5037975;28;20075;-73
2022/05/24 12:44:32;;;;;;;14.57;6.22;;;;;;;;;;5039253;28;20030;-75
2022/05/24 12:47:11;;;;;;;13.85;5.65;;;;;;;;;;5043999;28;20028;-73
2022/05/24 12:49:51;;;;;;;14.30;5.90;;;;;;;;;;5040015;28;20041;-73
2022/05/24 12:52:22;;;;;;;14.82;6.20;;;;;;;;;;5041215;28;20106;-75
2022/05/24 12:54:49;;;;;;;10.88;5.97;;;;;;;;;;5043858;28;20026;-75
2022/05/24 12:57:17;;;;;;;12.20;5.97;;;;;;;;;;5044747;28;20021;-73
2022/05/24 12:59:44;;;;;;;16.58;6.82;;;;;;;;;;5035579;28;20075;-73
2022/05/24 13:02:16;;;;;;;18.88;6.45;;;;;;;;;;5035474;28;20037;-75
2022/05/24 13:04:42;;;;;;;15.75;6.40;;;;;;;;;;5035787;28;20401;-75
2022/05/24 13:07:20;;;;;;;16.55;7.00;;;;;;;;;;5035792;28;20021;-73
2022/05/24 13:09:48;;;;;;;13.13;5.90;;;;;;;;;;5036573;28;20033;-75
2022/05/24 13:12:14;;;;;;;10.75;5.72;;;;;;;;;;5034182;28;20025;-74
2022/05/24 13:14:45;;;;;;;11.20;6.25;;;;;;;;;;5035934;28;20494;-75
2022/05/24 13:17:14;;;;;;;13.07;6.43;;;;;;;;;;5034841;28;20021;-76
2022/05/24 13:19:59;;;;;;;13.00;6.00;;;;;;;;;;5035083;28;20032;-76
2022/05/24 13:22:38;;;;;;;9.63;5.43;;;;;;;;;;5038562;28;20094;-74
2022/05/24 13:25:04;;;;;;;12.95;5.22;;;;;;;;;;5042894;28;20061;-76
2022/05/24 13:27:49;;;;;;;12.52;4.65;;;;;;;;;;5037849;28;20063;-76
2022/05/24 13:35:47;;;;;;;16.42;5.22;;;;;;;;;;5042527;28;20087;-77
2022/05/24 13:38:13;;;;;;;13.77;5.85;;;;;;;;;;5044760;28;20029;-75
2022/05/24 13:40:51;;;;;;;12.65;5.10;;;;;;;;;;5038343;28;20399;-76
2022/05/24 13:43:34;;;;;;;10.48;4.60;;;;;;;;;;5041718;28;20028;-77
2022/05/24 13:46:09;;;;;;;15.82;4.78;;;;;;;;;;5035473;28;20053;-76
2022/05/24 13:48:43;;;;;;;11.50;4.45;;;;;;;;;;5035253;28;20389;-76
2022/05/24 13:51:16;;;;;;;10.82;4.85;;;;;;;;;;5035028;28;20025;-75
2022/05/24 13:53:42;;;;;;;11.23;5.25;;;;;;;;;;5033733;28;20036;-75
2022/05/24 13:56:15;;;;;;;10.73;4.28;;;;;;;;;;5034982;28;20072;-74
2022/05/24 13:58:46;;;;;;;10.75;4.72;;;;;;;;;;5035382;28;20355;-75
2022/05/24 14:01:22;;;;;;;11.95;4.68;;;;;;;;;;5035355;28;20017;-76
2022/05/24 14:03:56;;;;;;;11.40;4.57;;;;;;;;;;5034671;28;20057;-75
2022/05/24 14:06:25;;;;;;;9.38;4.75;;;;;;;;;;5034284;28;20033;-76
2022/05/24 14:08:51;;;;;;;10.10;3.80;;;;;;;;;;5034585;28;20037;-76
2022/05/24 14:11:22;;;;;;;9.63;4.50;;;;;;;;;;5034340;28;20022;-76
2022/05/24 14:13:49;;;;;;;7.25;3.80;;;;;;;;;;5033542;28;20025;-76
2022/05/24 14:16:16;;;;;;;14.23;4.47;;;;;;;;;;5037138;28;20439;-75
2022/05/24 14:18:42;;;;;;;11.18;4.18;;;;;;;;;;5040304;28;20028;-73
2022/05/24 14:21:08;;;;;;;11.00;4.05;;;;;;;;;;5065721;23;20045;-80
2022/05/24 14:23:34;;;;;;;5.60;3.35;;;;;;;;;;5040074;28;20029;-81
2022/05/24 14:26:00;;;;;;;7.43;3.85;;;;;;;;;;5046243;28;20044;-75
2022/05/24 14:28:26;;;;;;;9.50;3.53;;;;;;;;;;5052261;28;20033;-77
2022/05/24 14:30:52;;;;;;;11.52;3.97;;;;;;;;;;5041060;28;20029;-79
2022/05/24 14:33:20;;;;;;;8.68;3.78;;;;;;;;;;5044729;28;20029;-81
2022/05/24 14:35:46;;;;;;;10.45;4.00;;;;;;;;;;5042776;28;20378;-82
2022/05/24 14:38:12;;;;;;;7.60;3.50;;;;;;;;;;5043793;28;20030;-79
2022/05/24 14:40:39;;;;;;;8.45;3.65;;;;;;;;;;5046427;28;20035;-79
2022/05/24 14:43:13;;;;;;;9.15;4.38;;;;;;;;;;5050985;28;20029;-77
2022/05/24 14:45:40;;;;;;;10.20;3.50;;;;;;;;;;5051375;28;20057;-79
2022/05/24 14:48:06;;;;;;;5.30;3.05;;;;;;;;;;5053787;28;20018;-78
2022/05/24 14:50:34;;;;;;;9.75;3.63;;;;;;;;;;5047641;28;20026;-82
2022/05/24 14:53:00;;;;;;;6.68;3.15;;;;;;;;;;5047331;28;20112;-78
2022/05/24 14:55:27;;;;;;;11.05;3.28;;;;;;;;;;5043924;28;20025;-82
2022/05/24 14:57:53;;;;;;;10.40;3.97;;;;;;;;;;5040834;28;20022;-79
2022/05/24 15:00:21;;;;;;;7.90;3.97;;;;;;;;;;5040967;28;20398;-75
2022/05/24 15:02:47;;;;;;;7.78;3.53;;;;;;;;;;5041987;28;20625;-79
2022/05/24 15:05:14;;;;;;;10.43;4.35;;;;;;;;;;5048837;28;20048;-77
2022/05/24 15:15:57;;;;;;;11.75;7.43;;;;;;;;;;5050406;28;20062;-79
2022/05/24 15:18:23;;;;;;;6.18;3.30;;;;;;;;;;5046474;28;20026;-78
2022/05/24 15:20:49;;;;;;;6.75;3.80;;;;;;;;;;5041731;28;20038;-79
2022/05/24 15:23:18;;;;;;;5.15;3.25;;;;;;;;;;5049625;28;20025;-75
2022/05/24 15:25:47;;;;;;;10.23;5.05;;;;;;;;;;5051362;28;20022;-77
2022/05/24 15:28:13;;;;;;;6.40;3.67;;;;;;;;;;5050934;28;20025;-77